createdAt,value
2018-09-25T00:00:31.672Z,931.56
2018-09-25T00:01:31.636Z,931.57
2018-09-25T00:02:31.611Z,931.60
2018-09-25T00:03:31.527Z,931.58
2018-09-25T00:04:31.488Z,931.62
2018-09-25T00:05:31.563Z,931.58
2018-09-25T00:06:31.394Z,931.60
2018-09-25T00:07:31.360Z,931.61
2018-09-25T00:08:31.314Z,931.60
2018-09-25T00:09:31.280Z,931.64
2018-09-25T00:10:31.223Z,931.62
2018-09-25T00:11:31.259Z,931.66
2018-09-25T00:12:31.130Z,931.69
2018-09-25T00:13:31.066Z,931.69
2018-09-25T00:14:31.036Z,931.72
2018-09-25T00:15:30.986Z,931.80
2018-09-25T00:16:30.933Z,931.78
2018-09-25T00:17:30.999Z,931.77
2018-09-25T00:18:30.841Z,931.79
2018-09-25T00:19:30.802Z,931.78
2018-09-25T00:20:30.762Z,931.82
2018-09-25T00:21:30.701Z,931.82
2018-09-25T00:22:30.675Z,931.82
2018-09-25T00:23:30.704Z,931.84
2018-09-25T00:24:30.574Z,931.81
2018-09-25T00:25:30.539Z,931.79
2018-09-25T00:26:30.480Z,931.83
2018-09-25T00:27:30.413Z,931.87
2018-09-25T00:28:30.374Z,931.86
2018-09-25T00:29:30.440Z,931.89
2018-09-25T00:30:30.295Z,931.89
2018-09-25T00:31:30.242Z,931.89
2018-09-25T00:32:30.198Z,931.92
2018-09-25T00:33:30.151Z,931.92
2018-09-25T00:34:30.106Z,931.92
2018-09-25T00:35:30.181Z,931.89
2018-09-25T00:36:30.036Z,931.88
2018-09-25T00:37:29.962Z,931.94
2018-09-25T00:38:29.918Z,931.97
2018-09-25T00:39:29.871Z,931.94
2018-09-25T00:40:29.830Z,931.91
2018-09-25T00:41:29.903Z,931.94
2018-09-25T00:42:29.756Z,931.94
2018-09-25T00:43:29.710Z,932.00
2018-09-25T00:44:29.637Z,932.01
2018-09-25T00:45:29.596Z,932.08
2018-09-25T00:46:29.553Z,932.07
2018-09-25T00:47:29.601Z,932.04
2018-09-25T00:48:29.468Z,932.08
2018-09-25T00:49:29.415Z,932.15
2018-09-25T00:50:29.355Z,932.16
2018-09-25T00:51:29.316Z,932.16
2018-09-25T00:52:29.291Z,932.17
2018-09-25T00:53:29.334Z,932.23
2018-09-25T00:54:29.186Z,932.25
2018-09-25T00:55:29.138Z,932.25
2018-09-25T00:56:29.086Z,932.23
2018-09-25T00:57:29.030Z,932.30
2018-09-25T00:58:29.010Z,932.25
2018-09-25T00:59:29.044Z,932.31
2018-09-25T01:00:28.907Z,932.30
2018-09-25T01:01:28.856Z,932.33
2018-09-25T01:02:28.804Z,932.30
2018-09-25T01:03:28.758Z,932.31
2018-09-25T01:04:28.707Z,932.27
2018-09-25T01:05:28.765Z,932.25
2018-09-25T01:06:28.632Z,932.24
2018-09-25T01:07:28.592Z,932.28
2018-09-25T01:08:28.545Z,932.25
2018-09-25T01:09:28.486Z,932.26
2018-09-25T01:10:28.442Z,932.25
2018-09-25T01:11:28.498Z,932.27
2018-09-25T01:12:28.361Z,932.25
2018-09-25T01:13:28.326Z,932.30
2018-09-25T01:14:28.272Z,932.31
2018-09-25T01:15:28.200Z,932.34
2018-09-25T01:16:28.160Z,932.37
2018-09-25T01:17:28.214Z,932.37
2018-09-25T01:18:28.065Z,932.36
2018-09-25T01:19:28.055Z,932.39
2018-09-25T01:20:27.976Z,932.35
2018-09-25T01:21:27.931Z,932.36
2018-09-25T01:22:27.978Z,932.33
2018-09-25T01:23:27.838Z,932.33
2018-09-25T01:24:27.800Z,932.27
2018-09-25T01:25:27.748Z,932.26
2018-09-25T01:26:27.683Z,932.28
2018-09-25T01:27:27.645Z,932.28
2018-09-25T01:28:27.600Z,932.33
2018-09-25T01:29:27.555Z,932.28
2018-09-25T01:30:27.500Z,932.36
2018-09-25T01:31:27.467Z,932.31
2018-09-25T01:32:27.407Z,932.33
2018-09-25T01:33:27.374Z,932.34
2018-09-25T01:34:27.421Z,932.34
2018-09-25T01:35:27.283Z,932.34
2018-09-25T01:36:27.222Z,932.38
2018-09-25T01:37:27.215Z,932.30
2018-09-25T01:38:27.136Z,932.34
2018-09-25T01:39:27.104Z,932.35
2018-09-25T01:40:27.145Z,932.36
2018-09-25T01:41:27.012Z,932.38
2018-09-25T01:42:26.950Z,932.37
2018-09-25T01:43:26.901Z,932.39
2018-09-25T01:44:26.853Z,932.37
2018-09-25T01:45:26.816Z,932.40
2018-09-25T01:46:26.767Z,932.36
2018-09-25T01:47:26.740Z,932.36
2018-09-25T01:48:26.675Z,932.38
2018-09-25T01:49:26.628Z,932.37
2018-09-25T01:50:26.595Z,932.40
2018-09-25T01:51:26.549Z,932.39
2018-09-25T01:52:26.616Z,932.34
2018-09-25T01:53:26.448Z,932.41
2018-09-25T01:54:26.404Z,932.39
2018-09-25T01:55:26.340Z,932.37
2018-09-25T01:56:26.296Z,932.34
2018-09-25T01:57:26.251Z,932.37
2018-09-25T01:58:26.316Z,932.36
2018-09-25T01:59:26.176Z,932.37
2018-09-25T02:00:26.123Z,932.36
2018-09-25T02:01:26.078Z,932.35
2018-09-25T02:02:26.029Z,932.31
2018-09-25T02:03:25.998Z,932.26
2018-09-25T02:04:26.038Z,932.21
2018-09-25T02:05:25.898Z,932.19
2018-09-25T02:06:25.840Z,932.17
2018-09-25T02:07:25.787Z,932.18
2018-09-25T02:08:25.738Z,932.14
2018-09-25T02:09:25.720Z,932.12
2018-09-25T02:10:25.749Z,932.11
2018-09-25T02:11:25.610Z,932.14
2018-09-25T02:12:25.563Z,932.07
2018-09-25T02:13:25.510Z,932.12
2018-09-25T02:14:25.468Z,932.15
2018-09-25T02:15:25.453Z,932.14
2018-09-25T02:16:25.480Z,932.04
2018-09-25T02:17:25.331Z,932.02
2018-09-25T02:18:25.277Z,932.03
2018-09-25T02:19:25.237Z,931.99
2018-09-25T02:20:25.198Z,931.99
2018-09-25T02:21:25.156Z,931.99
2018-09-25T02:22:25.211Z,932.02
2018-09-25T02:23:25.060Z,932.05
2018-09-25T02:24:25.006Z,932.09
2018-09-25T02:25:24.977Z,932.11
2018-09-25T02:26:24.915Z,932.01
2018-09-25T02:27:24.866Z,931.99
2018-09-25T02:28:25.064Z,932.02
2018-09-25T02:29:24.780Z,931.93
2018-09-25T02:30:24.730Z,931.97
2018-09-25T02:31:24.680Z,931.88
2018-09-25T02:32:24.634Z,931.95
2018-09-25T02:33:24.600Z,932.03
2018-09-25T02:34:24.657Z,932.03
2018-09-25T02:35:24.521Z,932.02
2018-09-25T02:36:24.456Z,932.02
2018-09-25T02:37:24.417Z,932.05
2018-09-25T02:38:24.350Z,932.09
2018-09-25T02:39:24.313Z,932.09
2018-09-25T02:40:24.258Z,932.08
2018-09-25T02:41:24.228Z,932.06
2018-09-25T02:42:24.170Z,932.06
2018-09-25T02:43:24.129Z,932.08
2018-09-25T02:44:24.082Z,932.06
2018-09-25T02:45:24.038Z,932.09
2018-09-25T02:46:24.080Z,932.10
2018-09-25T02:47:23.945Z,932.10
2018-09-25T02:48:23.886Z,932.07
2018-09-25T02:49:23.868Z,932.09
2018-09-25T02:50:23.805Z,932.04
2018-09-25T02:51:23.757Z,932.08
2018-09-25T02:52:23.828Z,932.02
2018-09-25T02:53:23.677Z,932.05
2018-09-25T02:54:23.615Z,931.99
2018-09-25T02:55:23.576Z,932.01
2018-09-25T02:56:23.532Z,931.99
2018-09-25T02:57:23.476Z,932.00
2018-09-25T02:58:23.544Z,932.01
2018-09-25T02:59:23.385Z,931.97
2018-09-25T03:00:23.335Z,931.96
2018-09-25T03:01:23.297Z,931.93
2018-09-25T03:02:23.242Z,931.94
2018-09-25T03:03:23.190Z,931.99
2018-09-25T03:04:23.257Z,931.96
2018-09-25T03:05:23.124Z,931.97
2018-09-25T03:06:23.070Z,931.94
2018-09-25T03:07:23.024Z,931.97
2018-09-25T03:08:22.977Z,931.99
2018-09-25T03:09:22.924Z,932.00
2018-09-25T03:10:22.880Z,932.00
2018-09-25T03:11:22.837Z,931.98
2018-09-25T03:12:22.805Z,931.96
2018-09-25T03:13:22.738Z,932.02
2018-09-25T03:14:22.680Z,932.07
2018-09-25T03:15:22.655Z,932.01
2018-09-25T03:16:22.604Z,932.07
2018-09-25T03:17:22.570Z,932.14
2018-09-25T03:18:22.500Z,932.12
2018-09-25T03:19:22.500Z,932.17
2018-09-25T03:20:22.419Z,932.20
2018-09-25T03:21:22.367Z,932.20
2018-09-25T03:22:22.426Z,932.21
2018-09-25T03:23:22.278Z,932.17
2018-09-25T03:24:22.247Z,932.16
2018-09-25T03:25:22.173Z,932.18
2018-09-25T03:26:22.134Z,932.14
2018-09-25T03:27:22.104Z,932.19
2018-09-25T03:28:22.047Z,932.16
2018-09-25T03:29:21.996Z,932.15
2018-09-25T03:30:21.949Z,932.15
2018-09-25T03:31:21.901Z,932.11
2018-09-25T03:32:21.860Z,932.10
2018-09-25T03:33:21.797Z,932.07
2018-09-25T03:34:21.888Z,932.08
2018-09-25T03:35:21.717Z,932.09
2018-09-25T03:36:21.672Z,932.08
2018-09-25T03:37:21.629Z,932.06
2018-09-25T03:38:21.581Z,932.06
2018-09-25T03:39:21.533Z,932.10
2018-09-25T03:40:21.603Z,932.06
2018-09-25T03:41:21.440Z,932.08
2018-09-25T03:42:21.394Z,932.07
2018-09-25T03:43:21.333Z,932.01
2018-09-25T03:44:21.310Z,932.02
2018-09-25T03:45:21.261Z,931.98
2018-09-25T03:46:21.313Z,932.01
2018-09-25T03:47:21.149Z,931.96
2018-09-25T03:48:21.121Z,931.95
2018-09-25T03:49:21.069Z,931.99
2018-09-25T03:50:21.027Z,932.00
2018-09-25T03:51:20.964Z,931.92
2018-09-25T03:52:21.024Z,931.92
2018-09-25T03:53:20.876Z,931.90
2018-09-25T03:54:20.842Z,931.93
2018-09-25T03:55:20.788Z,931.89
2018-09-25T03:56:20.739Z,931.86
2018-09-25T03:57:20.699Z,931.92
2018-09-25T03:58:20.757Z,931.90
2018-09-25T03:59:20.615Z,931.84
2018-09-25T04:00:20.560Z,931.87
2018-09-25T04:01:20.512Z,931.93
2018-09-25T04:02:20.490Z,931.86
2018-09-25T04:03:20.430Z,931.83
2018-09-25T04:04:20.475Z,931.84
2018-09-25T04:05:20.320Z,931.79
2018-09-25T04:06:20.427Z,931.79
2018-09-25T04:07:20.248Z,931.80
2018-09-25T04:08:20.213Z,931.76
2018-09-25T04:09:20.137Z,931.81
2018-09-25T04:10:20.093Z,931.84
2018-09-25T04:11:20.046Z,931.85
2018-09-25T04:12:20.007Z,931.85
2018-09-25T04:13:19.951Z,931.82
2018-09-25T04:14:19.895Z,931.83
2018-09-25T04:15:19.860Z,931.83
2018-09-25T04:16:19.917Z,931.85
2018-09-25T04:17:19.780Z,931.86
2018-09-25T04:18:19.720Z,931.87
2018-09-25T04:19:19.674Z,931.84
2018-09-25T04:20:19.619Z,931.87
2018-09-25T04:21:19.601Z,931.81
2018-09-25T04:22:19.632Z,931.91
2018-09-25T04:23:19.485Z,931.78
2018-09-25T04:24:19.437Z,931.79
2018-09-25T04:25:19.396Z,931.75
2018-09-25T04:26:19.353Z,931.72
2018-09-25T04:27:19.302Z,931.68
2018-09-25T04:28:19.368Z,931.66
2018-09-25T04:29:19.191Z,931.65
2018-09-25T04:30:19.165Z,931.65
2018-09-25T04:31:19.119Z,931.72
2018-09-25T04:32:19.063Z,931.62
2018-09-25T04:33:19.008Z,931.66
2018-09-25T04:34:19.071Z,931.62
2018-09-25T04:35:18.945Z,931.66
2018-09-25T04:36:18.870Z,931.74
2018-09-25T04:37:18.863Z,931.65
2018-09-25T04:38:18.779Z,931.72
2018-09-25T04:39:18.739Z,931.71
2018-09-25T04:40:18.794Z,931.68
2018-09-25T04:41:18.655Z,931.68
2018-09-25T04:42:18.610Z,931.70
2018-09-25T04:43:18.562Z,931.66
2018-09-25T04:44:18.511Z,931.67
2018-09-25T04:45:18.470Z,931.65
2018-09-25T04:46:18.504Z,931.61
2018-09-25T04:47:18.377Z,931.62
2018-09-25T04:48:18.344Z,931.67
2018-09-25T04:49:18.275Z,931.62
2018-09-25T04:50:18.225Z,931.64
2018-09-25T04:51:18.184Z,931.61
2018-09-25T04:52:18.243Z,931.63
2018-09-25T04:53:18.091Z,931.62
2018-09-25T04:54:18.051Z,931.59
2018-09-25T04:55:17.993Z,931.57
2018-09-25T04:56:17.961Z,931.53
2018-09-25T04:57:17.899Z,931.59
2018-09-25T04:58:17.984Z,931.56
2018-09-25T04:59:17.820Z,931.50
2018-09-25T05:00:17.756Z,931.50
2018-09-25T05:01:17.712Z,931.47
2018-09-25T05:02:17.661Z,931.48
2018-09-25T05:03:17.636Z,931.44
2018-09-25T05:04:17.666Z,931.49
2018-09-25T05:05:17.537Z,931.39
2018-09-25T05:06:17.493Z,931.40
2018-09-25T05:07:17.429Z,931.35
2018-09-25T05:08:17.391Z,931.38
2018-09-25T05:09:17.353Z,931.42
2018-09-25T05:10:17.403Z,931.47
2018-09-25T05:11:17.248Z,931.43
2018-09-25T05:12:17.363Z,931.41
2018-09-25T05:13:17.165Z,931.45
2018-09-25T05:14:17.121Z,931.43
2018-09-25T05:15:17.079Z,931.40
2018-09-25T05:16:17.123Z,931.44
2018-09-25T05:17:16.967Z,931.43
2018-09-25T05:18:17.004Z,931.46
2018-09-25T05:19:16.874Z,931.49
2018-09-25T05:20:16.838Z,931.53
2018-09-25T05:21:16.785Z,931.48
2018-09-25T05:22:16.830Z,931.56
2018-09-25T05:23:16.699Z,931.52
2018-09-25T05:24:16.639Z,931.51
2018-09-25T05:25:16.592Z,931.50
2018-09-25T05:26:16.555Z,931.49
2018-09-25T05:27:16.531Z,931.51
2018-09-25T05:28:16.552Z,931.42
2018-09-25T05:29:16.420Z,931.47
2018-09-25T05:30:16.384Z,931.52
2018-09-25T05:31:16.319Z,931.54
2018-09-25T05:32:16.272Z,931.51
2018-09-25T05:33:16.243Z,931.46
2018-09-25T05:34:16.285Z,931.46
2018-09-25T05:35:16.127Z,931.50
2018-09-25T05:36:16.090Z,931.42
2018-09-25T05:37:16.024Z,931.48
2018-09-25T05:38:15.980Z,931.40
2018-09-25T05:39:15.934Z,931.36
2018-09-25T05:40:15.994Z,931.37
2018-09-25T05:41:15.840Z,931.33
2018-09-25T05:42:15.806Z,931.38
2018-09-25T05:43:15.752Z,931.30
2018-09-25T05:44:15.719Z,931.24
2018-09-25T05:45:15.680Z,931.23
2018-09-25T05:46:15.736Z,931.18
2018-09-25T05:47:15.567Z,931.14
2018-09-25T05:48:15.576Z,931.15
2018-09-25T05:49:15.464Z,931.18
2018-09-25T05:50:15.443Z,931.13
2018-09-25T05:51:15.374Z,931.15
2018-09-25T05:52:15.441Z,931.10
2018-09-25T05:53:15.298Z,930.97
2018-09-25T05:54:15.246Z,930.94
2018-09-25T05:55:15.194Z,930.87
2018-09-25T05:56:15.146Z,930.79
2018-09-25T05:57:15.106Z,930.73
2018-09-25T05:58:15.162Z,930.67
2018-09-25T05:59:15.013Z,930.62
2018-09-25T06:00:14.972Z,930.63
2018-09-25T06:01:14.930Z,930.60
2018-09-25T06:02:14.876Z,930.64
2018-09-25T06:03:14.814Z,930.60
2018-09-25T06:04:14.779Z,930.66
2018-09-25T06:05:14.731Z,930.68
2018-09-25T06:06:14.675Z,930.66
2018-09-25T06:07:14.659Z,930.67
2018-09-25T06:08:14.591Z,930.69
2018-09-25T06:09:14.581Z,930.76
2018-09-25T06:10:14.593Z,930.73
2018-09-25T06:11:14.456Z,930.76
2018-09-25T06:12:14.407Z,930.79
2018-09-25T06:13:14.359Z,930.81
2018-09-25T06:14:14.312Z,930.83
2018-09-25T06:15:14.265Z,930.87
2018-09-25T06:16:14.321Z,930.86
2018-09-25T06:17:14.182Z,930.84
2018-09-25T06:18:14.123Z,930.80
2018-09-25T06:19:14.076Z,930.81
2018-09-25T06:20:14.044Z,930.85
2018-09-25T06:21:13.979Z,930.82
2018-09-25T06:22:14.035Z,930.82
2018-09-25T06:23:13.896Z,930.77
2018-09-25T06:24:13.845Z,930.78
2018-09-25T06:25:13.804Z,930.76
2018-09-25T06:26:13.774Z,930.73
2018-09-25T06:27:13.709Z,930.65
2018-09-25T06:28:13.658Z,930.70
2018-09-25T06:29:13.599Z,930.63
2018-09-25T06:30:13.572Z,930.69
2018-09-25T06:31:13.519Z,930.71
2018-09-25T06:32:13.489Z,930.72
2018-09-25T06:33:13.439Z,930.72
2018-09-25T06:34:13.488Z,930.72
2018-09-25T06:35:13.335Z,930.76
2018-09-25T06:36:13.286Z,930.75
2018-09-25T06:37:13.280Z,930.75
2018-09-25T06:38:13.205Z,930.76
2018-09-25T06:39:13.154Z,930.69
2018-09-25T06:40:13.195Z,930.71
2018-09-25T06:41:13.060Z,930.72
2018-09-25T06:42:13.027Z,930.70
2018-09-25T06:43:12.944Z,930.72
2018-09-25T06:44:12.917Z,930.70
2018-09-25T06:45:12.856Z,930.69
2018-09-25T06:46:12.929Z,930.62
2018-09-25T06:47:12.797Z,930.64
2018-09-25T06:48:12.745Z,930.60
2018-09-25T06:49:12.683Z,930.58
2018-09-25T06:50:12.623Z,930.53
2018-09-25T06:51:12.600Z,930.50
2018-09-25T06:52:12.538Z,930.49
2018-09-25T06:53:12.489Z,930.46
2018-09-25T06:54:12.452Z,930.41
2018-09-25T06:55:12.475Z,930.45
2018-09-25T06:56:12.359Z,930.33
2018-09-25T06:57:12.323Z,930.40
2018-09-25T06:58:12.356Z,930.39
2018-09-25T06:59:12.215Z,930.39
2018-09-25T07:00:12.180Z,930.48
2018-09-25T07:01:12.124Z,930.47
2018-09-25T07:02:12.081Z,930.49
2018-09-25T07:03:12.040Z,930.53
2018-09-25T07:04:12.101Z,930.47
2018-09-25T07:05:11.956Z,930.52
2018-09-25T07:06:11.883Z,930.47
2018-09-25T07:07:11.836Z,930.42
2018-09-25T07:08:11.804Z,930.43
2018-09-25T07:09:11.751Z,930.41
2018-09-25T07:10:11.935Z,930.41
2018-09-25T07:11:11.660Z,930.42
2018-09-25T07:12:11.610Z,930.40
2018-09-25T07:13:11.547Z,930.39
2018-09-25T07:14:11.512Z,930.35
2018-09-25T07:15:11.473Z,930.41
2018-09-25T07:16:11.518Z,930.37
2018-09-25T07:17:11.393Z,930.36
2018-09-25T07:18:11.341Z,930.31
2018-09-25T07:19:11.285Z,930.25
2018-09-25T07:20:11.251Z,930.23
2018-09-25T07:21:11.190Z,930.21
2018-09-25T07:22:11.247Z,930.20
2018-09-25T07:23:11.099Z,930.23
2018-09-25T07:24:11.039Z,930.18
2018-09-25T07:25:11.079Z,930.17
2018-09-25T07:26:10.978Z,930.18
2018-09-25T07:27:10.905Z,930.15
2018-09-25T07:28:10.954Z,930.11
2018-09-25T07:29:10.831Z,930.13
2018-09-25T07:30:10.776Z,930.08
2018-09-25T07:31:10.841Z,930.11
2018-09-25T07:32:10.670Z,930.11
2018-09-25T07:33:10.627Z,930.10
2018-09-25T07:34:10.686Z,930.14
2018-09-25T07:35:10.537Z,930.13
2018-09-25T07:36:10.487Z,930.08
2018-09-25T07:37:10.463Z,930.08
2018-09-25T07:38:10.393Z,930.10
2018-09-25T07:39:10.341Z,930.04
2018-09-25T07:40:10.400Z,930.05
2018-09-25T07:41:10.244Z,930.00
2018-09-25T07:42:10.213Z,929.98
2018-09-25T07:43:10.155Z,929.93
2018-09-25T07:44:10.143Z,929.87
2018-09-25T07:45:10.098Z,929.85
2018-09-25T07:46:10.123Z,929.79
2018-09-25T07:47:10.151Z,929.82
2018-09-25T07:48:09.957Z,929.77
2018-09-25T07:49:09.888Z,929.80
2018-09-25T07:50:09.844Z,929.77
2018-09-25T07:51:09.789Z,929.75
2018-09-25T07:52:09.841Z,929.73
2018-09-25T07:53:09.701Z,929.74
2018-09-25T07:54:09.653Z,929.77
2018-09-25T07:55:09.598Z,929.76
2018-09-25T07:56:09.561Z,929.68
2018-09-25T07:57:09.513Z,929.74
2018-09-25T07:58:09.567Z,929.73
2018-09-25T07:59:09.425Z,929.68
2018-09-25T08:00:09.389Z,929.62
2018-09-25T08:01:09.323Z,929.60
2018-09-25T08:02:09.284Z,929.56
2018-09-25T08:03:09.270Z,929.54
2018-09-25T08:04:09.284Z,929.54
2018-09-25T08:05:09.133Z,929.46
2018-09-25T08:06:09.101Z,929.50
2018-09-25T08:07:09.050Z,929.45
2018-09-25T08:08:09.030Z,929.42
2018-09-25T08:09:09.059Z,929.40
2018-09-25T08:10:09.030Z,929.36
2018-09-25T08:11:08.872Z,929.42
2018-09-25T08:12:08.836Z,929.39
2018-09-25T08:13:08.791Z,929.41
2018-09-25T08:14:08.731Z,929.40
2018-09-25T08:15:08.670Z,929.43
2018-09-25T08:16:08.753Z,929.43
2018-09-25T08:17:08.585Z,929.43
2018-09-25T08:18:08.528Z,929.41
2018-09-25T08:19:08.499Z,929.45
2018-09-25T08:20:08.477Z,929.44
2018-09-25T08:21:08.420Z,929.47
2018-09-25T08:22:08.471Z,929.47
2018-09-25T08:23:08.317Z,929.47
2018-09-25T08:24:08.257Z,929.49
2018-09-25T08:25:08.229Z,929.49
2018-09-25T08:26:08.181Z,929.51
2018-09-25T08:27:08.127Z,929.51
2018-09-25T08:28:08.174Z,929.47
2018-09-25T08:29:08.036Z,929.49
2018-09-25T08:30:07.986Z,929.50
2018-09-25T08:31:07.937Z,929.50
2018-09-25T08:32:07.886Z,929.49
2018-09-25T08:33:07.838Z,929.51
2018-09-25T08:34:07.901Z,929.43
2018-09-25T08:35:07.775Z,929.49
2018-09-25T08:36:07.714Z,929.51
2018-09-25T08:37:07.650Z,929.58
2018-09-25T08:38:07.604Z,929.59
2018-09-25T08:39:07.678Z,929.66
2018-09-25T08:40:07.624Z,929.57
2018-09-25T08:41:07.489Z,929.60
2018-09-25T08:42:07.432Z,929.59
2018-09-25T08:43:07.374Z,929.50
2018-09-25T08:44:07.346Z,929.50
2018-09-25T08:45:07.284Z,929.44
2018-09-25T08:46:07.326Z,929.46
2018-09-25T08:47:07.206Z,929.40
2018-09-25T08:48:07.139Z,929.42
2018-09-25T08:49:07.087Z,929.43
2018-09-25T08:50:07.049Z,929.40
2018-09-25T08:51:07.034Z,929.42
2018-09-25T08:52:07.055Z,929.40
2018-09-25T08:53:06.908Z,929.41
2018-09-25T08:54:06.910Z,929.44
2018-09-25T08:55:06.837Z,929.48
2018-09-25T08:56:06.797Z,929.44
2018-09-25T08:57:06.715Z,929.48
2018-09-25T08:58:06.778Z,929.46
2018-09-25T08:59:06.634Z,929.57
2018-09-25T09:00:06.605Z,929.59
2018-09-25T09:01:06.564Z,929.60
2018-09-25T09:02:06.490Z,929.64
2018-09-25T09:03:06.456Z,929.68
2018-09-25T09:04:06.422Z,929.69
2018-09-25T09:05:06.381Z,929.70
2018-09-25T09:06:06.323Z,929.77
2018-09-25T09:07:06.251Z,929.83
2018-09-25T09:08:06.211Z,929.83
2018-09-25T09:09:06.267Z,929.84
2018-09-25T09:10:06.140Z,929.82
2018-09-25T09:11:06.082Z,929.88
2018-09-25T09:12:06.029Z,929.90
2018-09-25T09:13:06.011Z,929.96
2018-09-25T09:14:05.958Z,929.98
2018-09-25T09:15:05.994Z,930.02
2018-09-25T09:16:05.853Z,930.03
2018-09-25T09:17:05.782Z,930.03
2018-09-25T09:18:05.751Z,930.04
2018-09-25T09:19:05.723Z,930.05
2018-09-25T09:20:05.711Z,930.07
2018-09-25T09:21:05.702Z,930.08
2018-09-25T09:22:05.547Z,930.05
2018-09-25T09:23:05.520Z,930.09
2018-09-25T09:24:05.477Z,930.10
2018-09-25T09:25:05.450Z,930.12
2018-09-25T09:26:05.380Z,930.12
2018-09-25T09:27:05.361Z,930.16
2018-09-25T09:28:05.290Z,930.16
2018-09-25T09:29:05.246Z,930.15
2018-09-25T09:30:05.188Z,930.17
2018-09-25T09:31:05.146Z,930.21
2018-09-25T09:32:05.097Z,930.19
2018-09-25T09:33:05.155Z,930.30
2018-09-25T09:34:04.994Z,930.21
2018-09-25T09:35:04.990Z,930.22
2018-09-25T09:36:04.919Z,930.20
2018-09-25T09:37:04.891Z,930.20
2018-09-25T09:38:04.829Z,930.24
2018-09-25T09:39:04.916Z,930.25
2018-09-25T09:40:04.745Z,930.28
2018-09-25T09:41:04.745Z,930.29
2018-09-25T09:42:04.825Z,930.32
2018-09-25T09:43:04.626Z,930.33
2018-09-25T09:44:04.556Z,930.37
2018-09-25T09:45:04.613Z,930.37
2018-09-25T09:46:04.468Z,930.38
2018-09-25T09:47:04.416Z,930.44
2018-09-25T09:48:04.370Z,930.44
2018-09-25T09:49:04.326Z,930.43
2018-09-25T09:50:04.292Z,930.48
2018-09-25T09:51:04.345Z,930.51
2018-09-25T09:52:04.161Z,930.54
2018-09-25T09:53:04.122Z,930.54
2018-09-25T09:54:04.076Z,930.53
2018-09-25T09:55:04.035Z,930.48
2018-09-25T09:56:04.011Z,930.52
2018-09-25T09:57:04.049Z,930.52
2018-09-25T09:58:03.908Z,930.60
2018-09-25T09:59:03.863Z,930.65
2018-09-25T10:00:03.806Z,930.55
2018-09-25T10:01:03.753Z,930.58
2018-09-25T10:02:03.717Z,930.51
2018-09-25T10:03:03.792Z,930.52
2018-09-25T10:04:03.646Z,930.50
2018-09-25T10:05:03.584Z,930.63
2018-09-25T10:06:03.536Z,930.71
2018-09-25T10:07:03.497Z,930.75
2018-09-25T10:08:03.444Z,930.70
2018-09-25T10:09:03.510Z,930.64
2018-09-25T10:10:03.360Z,930.70
2018-09-25T10:11:03.312Z,931.01
2018-09-25T10:12:03.273Z,931.15
2018-09-25T10:13:03.246Z,931.22
2018-09-25T10:14:03.184Z,931.15
2018-09-25T10:15:03.234Z,931.13
2018-09-25T10:16:03.089Z,931.25
2018-09-25T10:17:03.089Z,931.22
2018-09-25T10:18:03.015Z,931.23
2018-09-25T10:19:02.969Z,931.30
2018-09-25T10:20:02.955Z,931.23
2018-09-25T10:21:03.014Z,931.27
2018-09-25T10:22:02.860Z,931.34
2018-09-25T10:23:02.825Z,931.36
2018-09-25T10:24:02.778Z,931.37
2018-09-25T10:25:02.744Z,931.44
2018-09-25T10:26:02.686Z,931.52
2018-09-25T10:27:02.753Z,931.56
2018-09-25T10:28:02.622Z,931.53
2018-09-25T10:29:02.611Z,931.62
2018-09-25T10:30:02.551Z,931.65
2018-09-25T10:31:02.526Z,931.72
2018-09-25T10:32:02.491Z,930.73
2018-09-25T10:33:02.528Z,930.55
2018-09-25T10:34:02.481Z,931.23
2018-09-25T10:35:02.371Z,931.75
2018-09-25T10:36:02.322Z,931.67
2018-09-25T10:37:02.285Z,931.49
2018-09-25T10:38:02.253Z,930.95
2018-09-25T10:39:02.313Z,930.60
2018-09-25T10:40:02.199Z,930.60
2018-09-25T10:41:02.211Z,930.59
2018-09-25T10:42:02.097Z,930.56
2018-09-25T10:43:02.056Z,930.59
2018-09-25T10:44:02.021Z,930.58
2018-09-25T10:45:02.081Z,930.54
2018-09-25T10:46:01.935Z,930.63
2018-09-25T10:47:01.912Z,930.69
2018-09-25T10:48:01.854Z,930.64
2018-09-25T10:49:01.823Z,930.64
2018-09-25T10:50:01.817Z,930.65
2018-09-25T10:51:01.839Z,930.65
2018-09-25T10:52:01.686Z,930.68
2018-09-25T10:53:01.654Z,930.68
2018-09-25T10:54:01.626Z,930.66
2018-09-25T10:55:01.569Z,930.64
2018-09-25T10:56:01.670Z,930.61
2018-09-25T10:57:01.490Z,930.58
2018-09-25T10:58:01.463Z,930.68
2018-09-25T10:59:01.386Z,930.65
2018-09-25T11:00:01.362Z,930.64
2018-09-25T11:01:01.306Z,930.71
2018-09-25T11:02:01.256Z,930.71
2018-09-25T11:03:01.514Z,930.78
2018-09-25T11:04:01.198Z,930.80
2018-09-25T11:05:01.154Z,930.77
2018-09-25T11:06:01.092Z,930.78
2018-09-25T11:07:01.059Z,930.85
2018-09-25T11:08:01.027Z,930.84
2018-09-25T11:09:01.069Z,930.85
2018-09-25T11:10:00.977Z,930.92
2018-09-25T11:11:00.905Z,930.95
2018-09-25T11:12:00.849Z,930.95
2018-09-25T11:13:00.790Z,930.98
2018-09-25T11:14:00.742Z,930.97
2018-09-25T11:15:00.811Z,930.95
2018-09-25T11:16:00.655Z,930.93
2018-09-25T11:17:00.617Z,930.95
2018-09-25T11:18:00.585Z,930.95
2018-09-25T11:19:00.572Z,931.00
2018-09-25T11:20:00.514Z,931.05
2018-09-25T11:21:00.456Z,931.10
2018-09-25T11:22:00.406Z,931.12
2018-09-25T11:23:00.363Z,931.13
2018-09-25T11:24:00.321Z,931.19
2018-09-25T11:25:00.284Z,931.21
2018-09-25T11:26:00.227Z,931.27
2018-09-25T11:27:00.177Z,931.28
2018-09-25T11:28:00.154Z,931.31
2018-09-25T11:29:00.091Z,931.33
2018-09-25T11:30:00.054Z,931.34
2018-09-25T11:31:00.006Z,931.32
2018-09-25T11:31:59.972Z,931.32
2018-09-25T11:33:00.028Z,931.36
2018-09-25T11:33:59.876Z,931.37
2018-09-25T11:34:59.835Z,931.34
2018-09-25T11:35:59.799Z,931.37
2018-09-25T11:36:59.774Z,931.38
2018-09-25T11:37:59.702Z,931.32
2018-09-25T11:38:59.698Z,931.27
2018-09-25T11:39:59.632Z,931.29
2018-09-25T11:40:59.627Z,931.26
2018-09-25T11:41:59.527Z,931.28
2018-09-25T11:42:59.502Z,931.32
2018-09-25T11:43:59.444Z,931.38
2018-09-25T11:44:59.505Z,931.35
2018-09-25T11:45:59.412Z,931.34
2018-09-25T11:46:59.376Z,931.33
2018-09-25T11:47:59.290Z,931.31
2018-09-25T11:48:59.243Z,931.27
2018-09-25T11:49:59.416Z,931.33
2018-09-25T11:50:59.160Z,931.36
2018-09-25T11:51:59.110Z,931.38
2018-09-25T11:52:59.123Z,931.40
2018-09-25T11:53:59.048Z,931.45
2018-09-25T11:54:58.981Z,931.44
2018-09-25T11:55:58.941Z,931.40
2018-09-25T11:56:58.891Z,931.40
2018-09-25T11:57:58.855Z,931.38
2018-09-25T11:58:58.801Z,931.35
2018-09-25T11:59:58.771Z,931.32
2018-09-25T12:00:58.713Z,931.30
2018-09-25T12:01:58.696Z,931.33
2018-09-25T12:02:58.741Z,931.28
2018-09-25T12:03:58.598Z,931.32
2018-09-25T12:04:58.577Z,931.32
2018-09-25T12:05:58.511Z,931.35
2018-09-25T12:06:58.549Z,931.37
2018-09-25T12:07:58.409Z,931.40
2018-09-25T12:08:58.469Z,931.42
2018-09-25T12:09:58.326Z,931.45
2018-09-25T12:10:58.280Z,931.47
2018-09-25T12:11:58.271Z,931.50
2018-09-25T12:12:58.193Z,931.52
2018-09-25T12:13:58.176Z,931.47
2018-09-25T12:14:58.129Z,931.53
2018-09-25T12:15:58.068Z,931.55
2018-09-25T12:16:58.026Z,931.58
2018-09-25T12:17:57.981Z,931.62
2018-09-25T12:18:57.941Z,931.63
2018-09-25T12:19:57.971Z,931.64
2018-09-25T12:20:57.869Z,931.61
2018-09-25T12:21:57.806Z,931.64
2018-09-25T12:22:57.774Z,931.64
2018-09-25T12:23:57.736Z,931.62
2018-09-25T12:24:57.694Z,931.66
2018-09-25T12:25:57.646Z,931.64
2018-09-25T12:26:57.693Z,931.65
2018-09-25T12:27:57.555Z,931.68